createdAt,value
2023-03-29T00:02:19.644Z,98244.00
2023-03-29T00:04:46.988Z,98248.63
2023-03-29T00:07:14.107Z,98245.03
2023-03-29T00:09:40.570Z,98246.38
2023-03-29T00:12:07.186Z,98248.44
2023-03-29T00:14:33.697Z,98252.88
2023-03-29T00:17:00.632Z,98243.50
2023-03-29T00:19:27.166Z,98240.34
2023-03-29T00:21:53.715Z,98238.34
2023-03-29T00:24:21.343Z,98245.19
2023-03-29T00:26:48.326Z,98244.97
2023-03-29T00:29:14.827Z,98242.50
2023-03-29T00:31:41.399Z,98256.25
2023-03-29T00:34:07.920Z,98257.53
2023-03-29T00:36:34.403Z,98256.94
2023-03-29T00:39:01.061Z,98251.28
2023-03-29T00:41:27.684Z,98256.53
2023-03-29T00:43:54.091Z,98246.75
2023-03-29T00:46:21.235Z,98250.94
2023-03-29T00:48:47.835Z,98243.34
2023-03-29T00:51:16.517Z,98238.72
2023-03-29T00:53:48.305Z,98239.75
2023-03-29T00:56:20.272Z,98241.59
2023-03-29T00:58:46.705Z,98234.34
2023-03-29T01:01:19.491Z,98240.69
2023-03-29T01:03:54.390Z,98229.94
2023-03-29T01:06:24.719Z,98221.41
2023-03-29T01:08:54.497Z,98233.88
2023-03-29T01:11:24.674Z,98226.72
2023-03-29T01:13:54.940Z,98220.47
2023-03-29T01:16:23.313Z,98226.28
2023-03-29T01:18:50.492Z,98228.25
2023-03-29T01:21:21.541Z,98221.75
2023-03-29T01:23:51.023Z,98211.28
2023-03-29T01:26:20.651Z,98208.69
2023-03-29T01:28:51.405Z,98213.84
2023-03-29T01:31:28.704Z,98214.88
2023-03-29T01:34:05.837Z,98222.47
2023-03-29T01:36:44.798Z,98219.84
2023-03-29T01:39:11.293Z,98217.81
2023-03-29T01:41:41.050Z,98221.88
2023-03-29T01:44:13.779Z,98220.53
2023-03-29T01:46:45.561Z,98229.44
2023-03-29T01:49:32.432Z,98228.00
2023-03-29T01:52:01.190Z,98234.59
2023-03-29T01:54:27.607Z,98228.25
2023-03-29T01:56:57.584Z,98234.78
2023-03-29T01:59:26.398Z,98226.88
2023-03-29T02:01:55.221Z,98228.59
2023-03-29T02:04:25.548Z,98227.75
2023-03-29T02:06:54.518Z,98224.16
2023-03-29T02:09:21.243Z,98225.84
2023-03-29T02:11:48.514Z,98235.78
2023-03-29T02:14:15.478Z,98237.66
2023-03-29T02:16:41.953Z,98233.91
2023-03-29T02:19:09.404Z,98227.72
2023-03-29T02:21:35.819Z,98234.16
2023-03-29T02:24:06.513Z,98219.00
2023-03-29T02:26:33.373Z,98235.91
2023-03-29T02:29:00.075Z,98240.31
2023-03-29T02:31:56.256Z,98227.81
2023-03-29T02:34:22.947Z,98226.03
2023-03-29T02:36:58.860Z,98226.88
2023-03-29T02:39:27.252Z,98227.81
2023-03-29T02:41:54.561Z,98224.31
2023-03-29T02:44:27.422Z,98229.28
2023-03-29T02:46:56.776Z,98219.50
2023-03-29T02:49:23.783Z,98220.44
2023-03-29T02:51:53.578Z,98214.97
2023-03-29T02:54:23.119Z,98216.56
2023-03-29T02:56:54.817Z,98220.38
2023-03-29T02:59:24.723Z,98217.44
2023-03-29T03:01:52.537Z,98210.41
2023-03-29T03:04:20.692Z,98221.56
2023-03-29T03:06:48.365Z,98220.78
2023-03-29T03:09:15.542Z,98216.66
2023-03-29T03:11:44.650Z,98218.78
2023-03-29T03:14:11.257Z,98213.97
2023-03-29T03:16:37.915Z,98212.19
2023-03-29T03:19:05.024Z,98216.88
2023-03-29T03:21:31.521Z,98213.81
2023-03-29T03:23:59.775Z,98213.41
2023-03-29T03:26:30.088Z,98202.56
2023-03-29T03:28:57.455Z,98199.25
2023-03-29T03:31:44.643Z,98201.91
2023-03-29T03:34:34.764Z,98194.72
2023-03-29T03:37:01.930Z,98192.00
2023-03-29T03:39:31.516Z,98194.09
2023-03-29T03:41:58.814Z,98202.88
2023-03-29T03:44:26.046Z,98198.16
2023-03-29T03:47:09.764Z,98202.28
2023-03-29T03:49:37.510Z,98195.81
2023-03-29T03:52:04.227Z,98195.16
2023-03-29T03:54:32.005Z,98192.84
2023-03-29T03:57:39.801Z,98181.63
2023-03-29T04:00:19.657Z,98175.28
2023-03-29T04:02:56.481Z,98168.66
2023-03-29T04:05:23.435Z,98170.34
2023-03-29T04:07:50.226Z,98177.25
2023-03-29T04:10:39.716Z,98165.06
2023-03-29T04:13:22.538Z,98166.31
2023-03-29T04:16:18.176Z,98166.84
2023-03-29T04:18:45.578Z,98152.44
2023-03-29T04:21:12.651Z,98163.75
2023-03-29T04:23:39.208Z,98157.59
2023-03-29T04:26:06.625Z,98148.75
2023-03-29T04:28:46.987Z,98150.25
2023-03-29T04:31:18.716Z,98154.78
2023-03-29T04:33:52.301Z,98143.78
2023-03-29T04:36:19.478Z,98143.66
2023-03-29T04:38:47.942Z,98143.41
2023-03-29T04:41:16.122Z,98152.31
2023-03-29T04:43:58.651Z,98155.34
2023-03-29T04:46:26.918Z,98156.91
2023-03-29T04:49:12.620Z,98151.19
2023-03-29T04:51:42.319Z,98156.97
2023-03-29T04:54:09.977Z,98146.81
2023-03-29T04:56:59.642Z,98149.59
2023-03-29T04:59:44.695Z,98151.22
2023-03-29T05:02:32.423Z,98142.03
2023-03-29T05:04:59.399Z,98148.97
2023-03-29T05:07:26.507Z,98149.75
2023-03-29T05:09:53.336Z,98151.13
2023-03-29T05:12:20.875Z,98151.25
2023-03-29T05:14:52.900Z,98145.00
2023-03-29T05:17:22.056Z,98141.59
2023-03-29T05:19:49.680Z,98138.75
2023-03-29T05:22:16.687Z,98144.16
2023-03-29T05:24:43.630Z,98137.13
2023-03-29T05:27:17.204Z,98132.66
2023-03-29T05:29:51.061Z,98132.09
2023-03-29T05:32:46.955Z,98143.09
2023-03-29T05:35:16.935Z,98148.81
2023-03-29T05:37:44.295Z,98145.97
2023-03-29T05:40:13.265Z,98147.00
2023-03-29T05:43:02.838Z,98147.13
2023-03-29T05:45:30.007Z,98147.88
2023-03-29T05:47:57.712Z,98150.06
2023-03-29T05:50:24.771Z,98159.63
2023-03-29T05:52:51.618Z,98148.91
2023-03-29T05:55:18.530Z,98167.28
2023-03-29T05:57:45.925Z,98165.19
2023-03-29T06:00:31.910Z,98165.72
2023-03-29T06:05:48.433Z,98162.44
2023-03-29T06:08:16.608Z,98172.56
2023-03-29T06:11:04.559Z,98162.28
2023-03-29T06:13:50.250Z,98158.25
2023-03-29T06:16:16.810Z,98159.91
2023-03-29T06:18:43.552Z,98159.34
2023-03-29T06:21:10.660Z,98155.16
2023-03-29T06:23:37.894Z,98154.13
2023-03-29T06:26:05.805Z,98148.28
2023-03-29T06:28:33.171Z,98151.50
2023-03-29T06:31:04.092Z,98153.06
2023-03-29T06:33:37.237Z,98149.09
2023-03-29T06:36:28.002Z,98143.81
2023-03-29T06:38:55.348Z,98148.78
2023-03-29T06:41:45.028Z,98152.56
2023-03-29T06:44:45.369Z,98149.94
2023-03-29T06:47:18.988Z,98142.00
2023-03-29T06:49:45.549Z,98139.03
2023-03-29T06:52:27.275Z,98145.09
2023-03-29T06:54:53.960Z,98150.19
2023-03-29T06:57:23.715Z,98139.81
2023-03-29T06:59:50.212Z,98143.16
2023-03-29T07:02:21.912Z,98148.06
2023-03-29T07:04:54.464Z,98140.63
2023-03-29T07:07:56.592Z,98144.97
2023-03-29T07:10:39.562Z,98150.44
2023-03-29T07:13:26.205Z,98153.09
2023-03-29T07:15:55.846Z,98150.88
2023-03-29T07:18:41.928Z,98164.72
2023-03-29T07:21:11.473Z,98159.16
2023-03-29T07:23:38.448Z,98165.13
2023-03-29T07:26:07.925Z,98171.75
2023-03-29T07:28:34.701Z,98169.94
2023-03-29T07:31:02.276Z,98166.53
2023-03-29T07:33:30.463Z,98178.44
2023-03-29T07:36:02.014Z,98183.22
2023-03-29T07:38:28.840Z,98173.28
2023-03-29T07:41:03.284Z,98171.38
2023-03-29T07:43:55.893Z,98164.75
2023-03-29T07:46:25.057Z,98156.50
2023-03-29T07:48:52.151Z,98150.75
2023-03-29T07:51:19.664Z,98148.31
2023-03-29T07:53:52.720Z,98153.66
2023-03-29T07:56:37.892Z,98163.66
2023-03-29T07:59:16.923Z,98176.19
2023-03-29T08:01:47.459Z,98164.41
2023-03-29T08:04:31.026Z,98157.59
2023-03-29T08:07:18.834Z,98161.56
2023-03-29T08:10:06.785Z,98162.94
2023-03-29T08:12:56.638Z,98164.31
2023-03-29T08:15:30.599Z,98175.84
2023-03-29T08:17:57.148Z,98168.81
2023-03-29T08:20:25.163Z,98168.69
2023-03-29T08:22:55.404Z,98164.09
2023-03-29T08:25:35.167Z,98166.97
2023-03-29T08:28:02.804Z,98169.84
2023-03-29T08:30:40.342Z,98166.22
2023-03-29T08:33:07.648Z,98162.78
2023-03-29T08:35:34.675Z,98160.22
2023-03-29T08:38:21.764Z,98162.13
2023-03-29T08:40:49.527Z,98150.97
2023-03-29T08:43:17.703Z,98152.34
2023-03-29T08:46:36.021Z,98155.28
2023-03-29T08:49:39.778Z,98157.78
2023-03-29T08:52:16.896Z,98163.06
2023-03-29T08:54:46.737Z,98156.53
2023-03-29T08:57:25.581Z,98163.06
2023-03-29T08:59:58.632Z,98158.13
2023-03-29T09:02:30.655Z,98145.41
2023-03-29T09:05:05.944Z,98147.09
2023-03-29T09:07:53.274Z,98144.09
2023-03-29T09:10:23.103Z,98142.16
2023-03-29T09:12:59.440Z,98145.84
2023-03-29T09:15:33.770Z,98135.25
2023-03-29T09:18:32.334Z,98134.78
2023-03-29T09:21:02.147Z,98136.84
2023-03-29T09:23:40.572Z,98132.81
2023-03-29T09:26:18.207Z,98144.59
2023-03-29T09:29:04.493Z,98146.53
2023-03-29T09:31:43.353Z,98139.28
2023-03-29T09:34:15.668Z,98139.41
2023-03-29T09:37:25.069Z,98143.28
2023-03-29T09:39:53.143Z,98138.25
2023-03-29T09:42:24.127Z,98141.78
2023-03-29T09:44:52.663Z,98142.59
2023-03-29T09:47:28.075Z,98145.59
2023-03-29T09:50:01.960Z,98140.44
2023-03-29T09:52:28.885Z,98144.63
2023-03-29T09:55:13.649Z,98138.75
2023-03-29T09:58:01.689Z,98130.63
2023-03-29T10:00:32.784Z,98134.88
2023-03-29T10:03:00.146Z,98129.78
2023-03-29T10:05:37.203Z,98125.88
2023-03-29T10:08:15.023Z,98121.47
2023-03-29T10:10:42.715Z,98129.75
2023-03-29T10:13:16.611Z,98123.53
2023-03-29T10:15:43.360Z,98120.97
2023-03-29T10:18:13.368Z,98108.22
2023-03-29T10:20:40.583Z,98102.84
2023-03-29T10:23:08.361Z,98110.53
2023-03-29T10:25:38.385Z,98115.00
2023-03-29T10:28:07.750Z,98110.53
2023-03-29T10:30:36.049Z,98096.06
2023-03-29T10:33:03.294Z,98105.56
2023-03-29T10:35:29.794Z,98102.22
2023-03-29T10:37:58.455Z,98085.63
2023-03-29T10:40:32.696Z,98086.31
2023-03-29T10:43:00.612Z,98084.09
2023-03-29T10:45:28.344Z,98076.28
2023-03-29T10:47:56.049Z,98067.66
2023-03-29T10:50:22.940Z,98076.06
2023-03-29T10:52:50.432Z,98070.31
2023-03-29T10:55:17.122Z,98065.31
2023-03-29T10:57:48.388Z,98069.63
2023-03-29T11:00:15.044Z,98075.22
2023-03-29T11:02:53.880Z,98075.16
2023-03-29T11:05:52.969Z,98076.25
2023-03-29T11:08:36.575Z,98074.91
2023-03-29T11:11:05.891Z,98067.63
2023-03-29T11:14:04.789Z,98070.75
2023-03-29T11:16:31.240Z,98065.50
2023-03-29T11:19:06.910Z,98055.38
2023-03-29T11:21:39.788Z,98062.88
2023-03-29T11:24:12.832Z,98053.19
2023-03-29T11:26:53.479Z,98059.34
2023-03-29T11:29:27.115Z,98058.69
2023-03-29T11:31:56.791Z,98051.19
2023-03-29T11:34:42.214Z,98053.41
2023-03-29T11:37:11.686Z,98042.97
2023-03-29T11:39:43.971Z,98040.00
2023-03-29T11:42:18.254Z,98044.38
2023-03-29T11:44:47.216Z,98036.94
2023-03-29T11:47:26.741Z,98032.72
2023-03-29T11:49:57.391Z,98034.94
2023-03-29T11:52:37.893Z,98035.59
2023-03-29T11:55:08.288Z,98039.63
2023-03-29T11:57:37.558Z,98034.44
2023-03-29T12:00:14.787Z,98022.56
2023-03-29T12:02:59.519Z,98023.75
2023-03-29T12:05:47.484Z,98016.84
2023-03-29T12:08:29.499Z,98020.44
2023-03-29T12:11:07.247Z,98008.91
2023-03-29T12:13:37.873Z,98007.81
2023-03-29T12:16:16.564Z,98013.00
2023-03-29T12:18:45.808Z,98008.00
2023-03-29T12:21:14.367Z,98003.00
2023-03-29T12:23:41.857Z,98007.00
2023-03-29T12:26:20.619Z,98009.13
2023-03-29T12:29:07.133Z,98000.78
2023-03-29T12:31:42.840Z,97999.63
2023-03-29T12:34:18.083Z,97982.16
2023-03-29T12:37:00.459Z,97985.44
2023-03-29T12:39:46.954Z,97982.88
2023-03-29T12:42:31.785Z,97980.38
2023-03-29T12:45:33.356Z,97975.66
2023-03-29T12:48:00.247Z,97974.56
2023-03-29T12:50:37.965Z,97965.66
2023-03-29T12:53:13.965Z,97975.16
2023-03-29T12:55:48.331Z,97982.38
2023-03-29T12:58:42.764Z,97970.75
2023-03-29T13:01:27.632Z,97978.56
2023-03-29T13:03:57.716Z,97983.50
2023-03-29T13:06:30.139Z,97979.81
2023-03-29T13:09:01.612Z,97977.53
2023-03-29T13:11:37.432Z,97975.28
2023-03-29T13:14:11.590Z,97977.28
2023-03-29T13:16:40.435Z,97971.34
2023-03-29T13:19:17.332Z,97965.69
2023-03-29T13:21:46.559Z,97962.91
2023-03-29T13:24:12.977Z,97957.97
2023-03-29T13:27:05.754Z,97946.06
2023-03-29T13:29:35.175Z,97948.00
2023-03-29T13:32:06.443Z,97947.88
2023-03-29T13:34:48.328Z,97947.28
2023-03-29T13:37:29.856Z,97938.44
2023-03-29T13:39:56.932Z,97941.59
2023-03-29T13:42:24.972Z,97931.59
2023-03-29T13:44:52.247Z,97934.19
2023-03-29T13:47:18.814Z,97927.78
2023-03-29T13:49:51.698Z,97922.47
2023-03-29T13:52:32.517Z,97915.84
2023-03-29T13:55:33.673Z,97915.50
2023-03-29T13:58:10.053Z,97917.84
2023-03-29T14:00:49.507Z,97913.66
2023-03-29T14:03:17.530Z,97910.88
2023-03-29T14:05:47.610Z,97915.13
2023-03-29T14:08:23.206Z,97910.81
2023-03-29T14:10:50.081Z,97906.59
2023-03-29T14:13:18.130Z,97899.31
2023-03-29T14:15:48.576Z,97899.31
2023-03-29T14:18:16.875Z,97894.22
2023-03-29T14:20:45.362Z,97894.53
2023-03-29T14:23:15.681Z,97887.34
2023-03-29T14:25:42.682Z,97885.41
2023-03-29T14:28:18.964Z,97878.63
2023-03-29T14:30:47.146Z,97887.94
2023-03-29T14:33:29.972Z,97880.34
2023-03-29T14:35:58.204Z,97876.28
2023-03-29T14:38:26.177Z,97883.63
2023-03-29T14:40:53.022Z,97880.34
2023-03-29T14:43:22.473Z,97879.34
2023-03-29T14:45:49.422Z,97874.75
2023-03-29T14:48:16.403Z,97876.91
2023-03-29T14:50:44.152Z,97878.13
2023-03-29T14:53:17.145Z,97873.38
2023-03-29T14:55:46.153Z,97871.72
2023-03-29T14:58:19.893Z,97872.06
2023-03-29T15:00:48.093Z,97874.03
2023-03-29T15:03:15.254Z,97870.91
2023-03-29T15:05:43.972Z,97871.00
2023-03-29T15:08:14.896Z,97876.09
2023-03-29T15:10:44.729Z,97878.41
2023-03-29T15:13:16.364Z,97869.00
2023-03-29T15:15:42.994Z,97871.34
2023-03-29T15:18:13.101Z,97865.13
2023-03-29T15:20:39.799Z,97858.88
2023-03-29T15:23:15.494Z,97854.09
2023-03-29T15:25:52.150Z,97847.53
2023-03-29T15:28:32.623Z,97846.44
2023-03-29T15:31:12.899Z,97849.88
2023-03-29T15:33:41.057Z,97848.13
2023-03-29T15:36:09.257Z,97847.53
2023-03-29T15:38:43.957Z,97838.66
2023-03-29T15:41:11.688Z,97839.06
2023-03-29T15:43:38.233Z,97839.66
2023-03-29T15:46:05.096Z,97834.44
2023-03-29T15:48:33.528Z,97833.00
2023-03-29T15:51:03.727Z,97834.41
2023-03-29T15:53:32.112Z,97828.91
2023-03-29T15:56:00.003Z,97837.28
2023-03-29T15:58:27.805Z,97839.34
2023-03-29T16:01:11.174Z,97835.97
2023-03-29T16:03:38.321Z,97843.91
2023-03-29T16:06:05.283Z,97839.66
2023-03-29T16:08:32.105Z,97835.84
2023-03-29T16:10:58.590Z,97840.38
2023-03-29T16:13:25.126Z,97840.78
2023-03-29T16:15:51.601Z,97835.09
2023-03-29T16:18:18.045Z,97824.66
2023-03-29T16:20:44.513Z,97837.09
2023-03-29T16:23:11.919Z,97841.03
2023-03-29T16:25:39.891Z,97836.22
2023-03-29T16:28:07.829Z,97830.97
2023-03-29T16:30:35.275Z,97831.44
2023-03-29T16:33:06.132Z,97819.53
2023-03-29T16:35:35.940Z,97813.31
2023-03-29T16:38:02.531Z,97823.47
2023-03-29T16:40:29.074Z,97818.03
2023-03-29T16:42:55.767Z,97831.03
2023-03-29T16:45:22.376Z,97833.59
2023-03-29T16:47:48.988Z,97830.09
2023-03-29T16:50:17.979Z,97841.00
2023-03-29T16:52:45.176Z,97835.41
2023-03-29T16:55:12.749Z,97847.50
2023-03-29T16:57:40.080Z,97847.63
2023-03-29T17:00:07.992Z,97844.94
2023-03-29T17:02:34.524Z,97843.38
2023-03-29T17:05:01.068Z,97835.19
2023-03-29T17:07:27.614Z,97835.78
2023-03-29T17:09:54.141Z,97846.38
2023-03-29T17:12:21.205Z,97847.09
2023-03-29T17:14:48.118Z,97845.66
2023-03-29T17:17:15.183Z,97843.78
2023-03-29T17:19:41.678Z,97837.03
2023-03-29T17:22:08.327Z,97845.53
2023-03-29T17:24:34.746Z,97845.75
2023-03-29T17:27:01.353Z,97838.81
2023-03-29T17:29:27.825Z,97839.88
2023-03-29T17:31:54.833Z,97848.34
2023-03-29T17:34:21.412Z,97853.13
2023-03-29T17:36:48.782Z,97862.19
2023-03-29T17:39:15.397Z,97867.25
2023-03-29T17:41:42.132Z,97858.13
2023-03-29T17:44:08.707Z,97853.31
2023-03-29T17:46:35.279Z,97871.94
2023-03-29T17:49:02.609Z,97862.34
2023-03-29T17:51:29.305Z,97869.88
2023-03-29T17:53:57.107Z,97879.91
2023-03-29T17:56:23.775Z,97879.16
2023-03-29T17:58:50.575Z,97881.63
2023-03-29T18:01:19.624Z,97874.81
2023-03-29T18:03:47.746Z,97873.78
2023-03-29T18:06:16.322Z,97874.97
2023-03-29T18:08:42.778Z,97888.00
2023-03-29T18:11:11.986Z,97887.59
2023-03-29T18:13:39.779Z,97891.00
2023-03-29T18:16:07.542Z,97889.47
2023-03-29T18:18:34.652Z,97883.69
2023-03-29T18:21:01.531Z,97895.88
2023-03-29T18:23:28.051Z,97908.69
2023-03-29T18:26:02.909Z,97898.00
2023-03-29T18:28:30.514Z,97900.66
2023-03-29T18:30:57.217Z,97900.19
2023-03-29T18:33:23.865Z,97904.56
2023-03-29T18:35:51.341Z,97911.38
2023-03-29T18:38:18.387Z,97919.91
2023-03-29T18:40:46.958Z,97918.94
2023-03-29T18:43:13.806Z,97909.94
2023-03-29T18:45:40.385Z,97915.41
2023-03-29T18:48:08.065Z,97912.09
2023-03-29T18:50:34.970Z,97911.38
2023-03-29T18:53:01.639Z,97914.53
2023-03-29T18:55:28.564Z,97916.00
2023-03-29T18:57:55.395Z,97909.16
2023-03-29T19:00:22.171Z,97907.94
2023-03-29T19:02:48.831Z,97904.66
2023-03-29T19:05:15.564Z,97910.13
2023-03-29T19:07:42.007Z,97911.28
2023-03-29T19:10:08.645Z,97910.31
2023-03-29T19:12:35.679Z,97903.69
2023-03-29T19:15:02.277Z,97908.88
2023-03-29T19:17:28.753Z,97909.22
2023-03-29T19:19:56.733Z,97910.44
2023-03-29T19:22:23.473Z,97913.34
2023-03-29T19:24:50.014Z,97905.06
2023-03-29T19:27:16.546Z,97919.84
2023-03-29T19:29:43.046Z,97917.94
2023-03-29T19:32:09.489Z,97916.59
2023-03-29T19:34:36.192Z,97928.72
2023-03-29T19:37:02.652Z,97927.50
2023-03-29T19:39:29.722Z,97918.91
2023-03-29T19:41:56.508Z,97909.28
2023-03-29T19:44:25.759Z,97917.22
2023-03-29T19:46:52.380Z,97928.88
2023-03-29T19:51:45.494Z,97933.66
2023-03-29T19:54:14.740Z,97927.59
2023-03-29T19:56:42.896Z,97926.84
2023-03-29T19:59:11.235Z,97923.06
2023-03-29T20:01:39.441Z,97925.22
2023-03-29T20:04:06.337Z,97921.81
2023-03-29T20:06:32.992Z,97926.16
2023-03-29T20:08:59.544Z,97922.78
2023-03-29T20:11:26.193Z,97914.91
2023-03-29T20:13:52.628Z,97916.84
2023-03-29T20:16:19.311Z,97913.41
2023-03-29T20:18:46.507Z,97915.13
2023-03-29T20:21:16.291Z,97907.56
2023-03-29T20:23:43.145Z,97908.41
2023-03-29T20:26:10.505Z,97903.50
2023-03-29T20:28:37.671Z,97907.56
2023-03-29T20:31:05.663Z,97890.72
2023-03-29T20:33:32.897Z,97892.00
2023-03-29T20:35:59.461Z,97885.69
2023-03-29T20:38:26.220Z,97896.38
2023-03-29T20:40:53.496Z,97891.34
2023-03-29T20:43:20.184Z,97888.38
2023-03-29T20:45:53.872Z,97893.06
2023-03-29T20:48:23.472Z,97899.66
2023-03-29T20:50:50.387Z,97897.09
2023-03-29T20:53:18.137Z,97907.31
2023-03-29T20:55:44.821Z,97907.09
2023-03-29T20:58:11.513Z,97895.91
2023-03-29T21:00:38.274Z,97896.66
2023-03-29T21:03:05.079Z,97901.22
2023-03-29T21:05:32.959Z,97906.91
2023-03-29T21:07:59.509Z,97904.44
2023-03-29T21:10:26.484Z,97896.25
2023-03-29T21:12:54.309Z,97889.75
2023-03-29T21:15:21.005Z,97880.03
2023-03-29T21:17:47.818Z,97878.63
2023-03-29T21:20:14.901Z,97885.09
2023-03-29T21:22:44.888Z,97887.53
2023-03-29T21:25:12.409Z,97884.34
2023-03-29T21:27:38.856Z,97872.44
2023-03-29T21:30:05.950Z,97877.56
2023-03-29T21:32:32.504Z,97878.53
2023-03-29T21:34:58.995Z,97882.34
2023-03-29T21:37:25.735Z,97878.72
2023-03-29T21:39:52.162Z,97885.75
2023-03-29T21:42:18.690Z,97885.03
2023-03-29T21:44:45.271Z,97890.09
2023-03-29T21:47:11.819Z,97900.66
2023-03-29T21:49:38.419Z,97885.31
2023-03-29T21:52:05.123Z,97892.31
2023-03-29T21:54:31.637Z,97888.69
2023-03-29T21:56:58.140Z,97872.94
2023-03-29T21:59:24.785Z,97877.19
2023-03-29T22:01:51.330Z,97875.31
2023-03-29T22:04:29.236Z,97869.78
2023-03-29T22:07:02.700Z,97866.56
2023-03-29T22:09:29.195Z,97858.69
2023-03-29T22:11:55.902Z,97858.69
2023-03-29T22:14:22.389Z,97852.75
2023-03-29T22:16:48.963Z,97866.03
2023-03-29T22:19:15.472Z,97872.69
2023-03-29T22:21:42.623Z,97867.44
2023-03-29T22:24:09.125Z,97861.47
2023-03-29T22:26:35.597Z,97849.78
2023-03-29T22:29:02.345Z,97858.84
2023-03-29T22:31:29.411Z,97863.81
2023-03-29T22:33:56.259Z,97862.72
2023-03-29T22:36:23.944Z,97860.56
2023-03-29T22:38:51.183Z,97849.22
2023-03-29T22:41:18.118Z,97860.63
2023-03-29T22:43:45.185Z,97839.63
2023-03-29T22:46:12.877Z,97840.91
2023-03-29T22:48:39.633Z,97830.16
2023-03-29T22:51:06.552Z,97838.34
2023-03-29T22:53:33.413Z,97845.09
2023-03-29T22:55:59.859Z,97844.81
2023-03-29T22:58:26.848Z,97835.66
2023-03-29T23:00:53.367Z,97839.34
2023-03-29T23:03:19.905Z,97832.94
2023-03-29T23:05:53.436Z,97841.78
2023-03-29T23:08:20.004Z,97836.00
2023-03-29T23:10:47.076Z,97836.00
2023-03-29T23:13:19.943Z,97829.31
2023-03-29T23:15:48.072Z,97844.09
2023-03-29T23:18:15.494Z,97822.09
2023-03-29T23:20:42.489Z,97821.75
2023-03-29T23:23:09.294Z,97832.75
2023-03-29T23:25:36.370Z,97830.38
2023-03-29T23:28:03.006Z,97830.38
2023-03-29T23:30:32.394Z,97832.22
2023-03-29T23:33:00.021Z,97823.44
2023-03-29T23:35:26.700Z,97823.69
2023-03-29T23:37:54.143Z,97819.38
2023-03-29T23:40:21.328Z,97812.59
2023-03-29T23:42:48.917Z,97819.25
2023-03-29T23:45:18.089Z,97834.72
2023-03-29T23:47:45.510Z,97823.84
2023-03-29T23:50:13.407Z,97810.19
2023-03-29T23:52:40.649Z,97809.22
2023-03-29T23:55:08.560Z,97807.38
2023-03-29T23:57:36.970Z,97811.63
